sensor_id;sensor_type;location;lat;lon;timestamp;pressure;altitude;pressure_sealevel;temperature;humidity
57847;BME280;43675;50.030;21.952;2022-09-30T00:01:33;98039.48;;;11.89;75.76
57847;BME280;43675;50.030;21.952;2022-09-30T00:03:59;98041.73;;;11.92;75.80
57847;BME280;43675;50.030;21.952;2022-09-30T00:06:27;98042.29;;;11.94;75.82
57847;BME280;43675;50.030;21.952;2022-09-30T00:08:54;98041.80;;;11.97;75.83
57847;BME280;43675;50.030;21.952;2022-09-30T00:11:23;98042.67;;;12.00;75.81
57847;BME280;43675;50.030;21.952;2022-09-30T00:13:50;98040.27;;;12.01;75.76
57847;BME280;43675;50.030;21.952;2022-09-30T00:16:25;98033.55;;;12.01;75.76
57847;BME280;43675;50.030;21.952;2022-09-30T00:18:58;98039.52;;;12.03;75.79
57847;BME280;43675;50.030;21.952;2022-09-30T00:21:25;98041.09;;;12.01;75.80
57847;BME280;43675;50.030;21.952;2022-09-30T00:23:51;98040.05;;;12.02;75.79
57847;BME280;43675;50.030;21.952;2022-09-30T00:26:19;98031.20;;;12.04;75.79
57847;BME280;43675;50.030;21.952;2022-09-30T00:28:50;98037.40;;;12.05;75.75
57847;BME280;43675;50.030;21.952;2022-09-30T00:31:17;98040.38;;;12.06;75.76
57847;BME280;43675;50.030;21.952;2022-09-30T00:33:49;98043.59;;;12.05;75.79
57847;BME280;43675;50.030;21.952;2022-09-30T00:36:15;98043.89;;;12.06;75.83
57847;BME280;43675;50.030;21.952;2022-09-30T00:38:47;98034.22;;;12.08;75.84
57847;BME280;43675;50.030;21.952;2022-09-30T00:41:13;98038.81;;;12.07;75.87
57847;BME280;43675;50.030;21.952;2022-09-30T00:43:41;98045.53;;;12.07;75.88
57847;BME280;43675;50.030;21.952;2022-09-30T00:46:31;98057.91;;;12.08;75.93
57847;BME280;43675;50.030;21.952;2022-09-30T00:49:00;98053.34;;;12.09;75.97
57847;BME280;43675;50.030;21.952;2022-09-30T00:51:30;98052.27;;;12.07;76.06
57847;BME280;43675;50.030;21.952;2022-09-30T00:54:05;98051.18;;;12.08;76.07
57847;BME280;43675;50.030;21.952;2022-09-30T00:56:34;98036.98;;;12.10;76.08
57847;BME280;43675;50.030;21.952;2022-09-30T00:59:08;98030.55;;;12.11;76.08
57847;BME280;43675;50.030;21.952;2022-09-30T01:01:30;98022.75;;;12.12;76.04
57847;BME280;43675;50.030;21.952;2022-09-30T01:03:59;98025.73;;;12.13;76.01
57847;BME280;43675;50.030;21.952;2022-09-30T01:06:26;98021.18;;;12.14;75.95
57847;BME280;43675;50.030;21.952;2022-09-30T01:08:52;98023.05;;;12.13;75.96
57847;BME280;43675;50.030;21.952;2022-09-30T01:11:18;98029.25;;;12.14;75.96
57847;BME280;43675;50.030;21.952;2022-09-30T01:13:45;98024.39;;;12.13;75.95
57847;BME280;43675;50.030;21.952;2022-09-30T01:25:16;98022.05;;;12.03;76.12
57847;BME280;43675;50.030;21.952;2022-09-30T01:31:03;98020.11;;;12.01;76.11
57847;BME280;43675;50.030;21.952;2022-09-30T01:44:18;98050.28;;;12.03;76.34
57847;BME280;43675;50.030;21.952;2022-09-30T01:46:54;98053.31;;;12.06;76.32
57847;BME280;43675;50.030;21.952;2022-09-30T01:49:33;98060.33;;;12.07;76.35
57847;BME280;43675;50.030;21.952;2022-09-30T01:52:13;98066.57;;;12.10;76.32
57847;BME280;43675;50.030;21.952;2022-09-30T01:54:46;98062.83;;;12.11;76.31
57847;BME280;43675;50.030;21.952;2022-09-30T01:57:16;98057.20;;;12.13;76.28
57847;BME280;43675;50.030;21.952;2022-09-30T01:59:46;98041.05;;;12.13;76.27
57847;BME280;43675;50.030;21.952;2022-09-30T02:02:27;98031.41;;;12.14;76.25
57847;BME280;43675;50.030;21.952;2022-09-30T02:04:57;98021.41;;;12.12;76.20
57847;BME280;43675;50.030;21.952;2022-09-30T02:07:27;98016.52;;;12.09;76.21
57847;BME280;43675;50.030;21.952;2022-09-30T02:10:15;98016.74;;;12.08;76.20
57847;BME280;43675;50.030;21.952;2022-09-30T02:12:44;98026.97;;;12.08;76.24
57847;BME280;43675;50.030;21.952;2022-09-30T02:15:13;98018.57;;;12.05;76.29
57847;BME280;43675;50.030;21.952;2022-09-30T02:17:45;98026.41;;;12.06;76.32
57847;BME280;43675;50.030;21.952;2022-09-30T02:20:30;98029.66;;;12.08;76.30
57847;BME280;43675;50.030;21.952;2022-09-30T02:23:04;98027.27;;;12.09;76.31
57847;BME280;43675;50.030;21.952;2022-09-30T02:25:34;98033.70;;;12.08;76.35
57847;BME280;43675;50.030;21.952;2022-09-30T02:28:04;98027.80;;;12.09;76.37
57847;BME280;43675;50.030;21.952;2022-09-30T02:30:32;98033.47;;;12.10;76.34
57847;BME280;43675;50.030;21.952;2022-09-30T02:33:02;98038.03;;;12.09;76.34
57847;BME280;43675;50.030;21.952;2022-09-30T02:35:40;98045.28;;;12.09;76.34
57847;BME280;43675;50.030;21.952;2022-09-30T02:38:30;98059.84;;;12.10;76.37
57847;BME280;43675;50.030;21.952;2022-09-30T02:41:00;98062.91;;;12.02;76.37
57847;BME280;43675;50.030;21.952;2022-09-30T02:43:25;98072.14;;;12.06;76.37
57847;BME280;43675;50.030;21.952;2022-09-30T02:57:04;98064.22;;;12.14;76.55
57847;BME280;43675;50.030;21.952;2022-09-30T02:59:27;98066.31;;;12.12;76.59
57847;BME280;43675;50.030;21.952;2022-09-30T03:01:53;98065.78;;;12.12;76.62
57847;BME280;43675;50.030;21.952;2022-09-30T03:04:22;98062.61;;;12.15;76.59
57847;BME280;43675;50.030;21.952;2022-09-30T03:06:48;98060.29;;;12.19;76.53
57847;BME280;43675;50.030;21.952;2022-09-30T03:09:14;98064.33;;;12.19;76.51
57847;BME280;43675;50.030;21.952;2022-09-30T03:11:40;98064.36;;;12.21;76.53
57847;BME280;43675;50.030;21.952;2022-09-30T03:14:34;98062.79;;;12.23;76.52
57847;BME280;43675;50.030;21.952;2022-09-30T03:17:28;98061.15;;;12.22;76.52
57847;BME280;43675;50.030;21.952;2022-09-30T03:20:29;98070.23;;;12.18;76.57
57847;BME280;43675;50.030;21.952;2022-09-30T03:23:16;98073.37;;;12.15;76.63
57847;BME280;43675;50.030;21.952;2022-09-30T03:28:33;98087.56;;;12.11;76.75
57847;BME280;43675;50.030;21.952;2022-09-30T03:31:09;98082.19;;;12.11;76.78
57847;BME280;43675;50.030;21.952;2022-09-30T03:33:46;98095.37;;;12.12;76.81
57847;BME280;43675;50.030;21.952;2022-09-30T03:36:14;98091.11;;;12.14;76.81
57847;BME280;43675;50.030;21.952;2022-09-30T03:38:55;98091.94;;;12.14;76.84
57847;BME280;43675;50.030;21.952;2022-09-30T03:41:28;98086.03;;;12.15;76.86
57847;BME280;43675;50.030;21.952;2022-09-30T03:44:21;98080.92;;;12.16;76.89
57847;BME280;43675;50.030;21.952;2022-09-30T03:46:50;98079.58;;;12.16;76.92
57847;BME280;43675;50.030;21.952;2022-09-30T03:49:20;98085.44;;;12.13;76.96
57847;BME280;43675;50.030;21.952;2022-09-30T03:51:46;98083.57;;;12.13;76.97
57847;BME280;43675;50.030;21.952;2022-09-30T03:54:12;98083.05;;;12.14;77.00
57847;BME280;43675;50.030;21.952;2022-09-30T03:56:39;98079.53;;;12.13;77.03
57847;BME280;43675;50.030;21.952;2022-09-30T03:59:05;98077.66;;;12.14;77.09
57847;BME280;43675;50.030;21.952;2022-09-30T04:01:30;98080.92;;;12.16;77.10
57847;BME280;43675;50.030;21.952;2022-09-30T04:03:56;98085.48;;;12.15;77.13
57847;BME280;43675;50.030;21.952;2022-09-30T04:06:24;98088.98;;;12.16;77.21
57847;BME280;43675;50.030;21.952;2022-09-30T04:08:49;98086.59;;;12.17;77.21
57847;BME280;43675;50.030;21.952;2022-09-30T04:11:16;98093.09;;;12.18;77.25
57847;BME280;43675;50.030;21.952;2022-09-30T04:13:41;98096.88;;;12.20;77.25
57847;BME280;43675;50.030;21.952;2022-09-30T04:16:08;98095.82;;;12.21;77.28
57847;BME280;43675;50.030;21.952;2022-09-30T04:18:35;98092.09;;;12.22;77.26
57847;BME280;43675;50.030;21.952;2022-09-30T04:21:11;98099.63;;;12.22;77.27
57847;BME280;43675;50.030;21.952;2022-09-30T04:23:40;98101.50;;;12.22;77.31
57847;BME280;43675;50.030;21.952;2022-09-30T04:26:13;98099.63;;;12.22;77.35
57847;BME280;43675;50.030;21.952;2022-09-30T04:28:36;98098.81;;;12.22;77.36
57847;BME280;43675;50.030;21.952;2022-09-30T04:31:02;98103.94;;;12.23;77.35
57847;BME280;43675;50.030;21.952;2022-09-30T04:33:29;98109.61;;;12.24;77.35
57847;BME280;43675;50.030;21.952;2022-09-30T04:35:56;98103.70;;;12.25;77.37
57847;BME280;43675;50.030;21.952;2022-09-30T04:38:22;98111.03;;;12.27;77.37
57847;BME280;43675;50.030;21.952;2022-09-30T04:40:56;98104.56;;;12.28;77.35
57847;BME280;43675;50.030;21.952;2022-09-30T04:43:23;98115.62;;;12.29;77.33
57847;BME280;43675;50.030;21.952;2022-09-30T04:45:50;98111.06;;;12.29;77.34
57847;BME280;43675;50.030;21.952;2022-09-30T04:48:16;98120.23;;;12.31;77.39
57847;BME280;43675;50.030;21.952;2022-09-30T04:50:42;98126.20;;;12.33;77.39
57847;BME280;43675;50.030;21.952;2022-09-30T04:53:10;98123.03;;;12.36;77.38
57847;BME280;43675;50.030;21.952;2022-09-30T04:55:36;98127.66;;;12.38;77.34
57847;BME280;43675;50.030;21.952;2022-09-30T04:58:03;98119.10;;;12.41;77.32
57847;BME280;43675;50.030;21.952;2022-09-30T05:00:29;98121.83;;;12.44;77.29
57847;BME280;43675;50.030;21.952;2022-09-30T05:02:55;98114.09;;;12.47;77.28
57847;BME280;43675;50.030;21.952;2022-09-30T05:05:20;98120.89;;;12.50;77.20
57847;BME280;43675;50.030;21.952;2022-09-30T05:07:46;98127.13;;;12.53;77.15
57847;BME280;43675;50.030;21.952;2022-09-30T05:10:11;98134.19;;;12.56;77.12
57847;BME280;43675;50.030;21.952;2022-09-30T05:12:38;98126.70;;;12.58;77.07
57847;BME280;43675;50.030;21.952;2022-09-30T05:15:05;98121.89;;;12.60;77.06
57847;BME280;43675;50.030;21.952;2022-09-30T05:17:31;98120.58;;;12.63;77.00
57847;BME280;43675;50.030;21.952;2022-09-30T05:19:57;98127.60;;;12.64;76.92
57847;BME280;43675;50.030;21.952;2022-09-30T05:22:23;98122.52;;;12.65;76.89
57847;BME280;43675;50.030;21.952;2022-09-30T05:24:55;98122.81;;;12.66;76.87
57847;BME280;43675;50.030;21.952;2022-09-30T05:27:27;98119.83;;;12.65;76.86
57847;BME280;43675;50.030;21.952;2022-09-30T05:29:59;98123.86;;;12.65;76.82
57847;BME280;43675;50.030;21.952;2022-09-30T05:32:25;98119.00;;;12.64;76.86
57847;BME280;43675;50.030;21.952;2022-09-30T05:34:50;98120.35;;;12.64;76.81
57847;BME280;43675;50.030;21.952;2022-09-30T05:37:16;98128.20;;;12.66;76.81
57847;BME280;43675;50.030;21.952;2022-09-30T05:39:42;98128.46;;;12.67;76.81
57847;BME280;43675;50.030;21.952;2022-09-30T05:42:07;98138.48;;;12.69;76.81
57847;BME280;43675;50.030;21.952;2022-09-30T05:44:33;98139.56;;;12.70;76.82
57847;BME280;43675;50.030;21.952;2022-09-30T05:46:59;98141.80;;;12.73;76.80
57847;BME280;43675;50.030;21.952;2022-09-30T05:49:25;98146.69;;;12.76;76.76
57847;BME280;43675;50.030;21.952;2022-09-30T05:51:51;98145.98;;;12.81;76.73
57847;BME280;43675;50.030;21.952;2022-09-30T05:54:16;98140.63;;;12.84;76.67
57847;BME280;43675;50.030;21.952;2022-09-30T05:56:42;98140.13;;;12.87;76.64
57847;BME280;43675;50.030;21.952;2022-09-30T05:59:08;98143.16;;;12.90;76.63
57847;BME280;43675;50.030;21.952;2022-09-30T06:01:34;98147.83;;;12.95;76.62
57847;BME280;43675;50.030;21.952;2022-09-30T06:04:00;98143.36;;;13.00;76.58
57847;BME280;43675;50.030;21.952;2022-09-30T06:06:26;98151.80;;;13.06;76.53
57847;BME280;43675;50.030;21.952;2022-09-30T06:08:52;98160.31;;;13.12;76.43
57847;BME280;43675;50.030;21.952;2022-09-30T06:11:19;98154.42;;;13.15;76.32
57847;BME280;43675;50.030;21.952;2022-09-30T06:13:46;98156.09;;;13.19;76.29
57847;BME280;43675;50.030;21.952;2022-09-30T06:16:12;98155.38;;;13.23;76.21
57847;BME280;43675;50.030;21.952;2022-09-30T06:18:39;98152.71;;;13.26;76.08
57847;BME280;43675;50.030;21.952;2022-09-30T06:21:05;98155.20;;;13.30;76.02
57847;BME280;43675;50.030;21.952;2022-09-30T06:23:31;98150.44;;;13.35;76.01
57847;BME280;43675;50.030;21.952;2022-09-30T06:25:57;98148.06;;;13.38;75.86
57847;BME280;43675;50.030;21.952;2022-09-30T06:28:37;98147.13;;;13.47;75.78
57847;BME280;43675;50.030;21.952;2022-09-30T06:31:03;98151.29;;;13.54;75.72
57847;BME280;43675;50.030;21.952;2022-09-30T06:33:36;98153.86;;;13.63;75.57
57847;BME280;43675;50.030;21.952;2022-09-30T06:36:02;98156.97;;;13.72;75.42
57847;BME280;43675;50.030;21.952;2022-09-30T06:38:27;98155.73;;;13.80;75.21
57847;BME280;43675;50.030;21.952;2022-09-30T06:40:53;98150.45;;;13.87;75.03
57847;BME280;43675;50.030;21.952;2022-09-30T06:43:19;98148.09;;;13.93;74.87
57847;BME280;43675;50.030;21.952;2022-09-30T06:45:46;98144.94;;;13.99;74.68
57847;BME280;43675;50.030;21.952;2022-09-30T06:48:13;98142.56;;;14.02;74.59
57847;BME280;43675;50.030;21.952;2022-09-30T06:50:38;98145.28;;;14.05;74.48
57847;BME280;43675;50.030;21.952;2022-09-30T06:53:06;98134.27;;;14.09;74.35
57847;BME280;43675;50.030;21.952;2022-09-30T06:55:33;98135.94;;;14.12;74.24
57847;BME280;43675;50.030;21.952;2022-09-30T06:57:59;98133.55;;;14.16;74.15
57847;BME280;43675;50.030;21.952;2022-09-30T07:00:25;98135.50;;;14.20;74.03
57847;BME280;43675;50.030;21.952;2022-09-30T07:02:54;98133.41;;;14.25;73.95
57847;BME280;43675;50.030;21.952;2022-09-30T07:05:19;98139.70;;;14.31;73.87
57847;BME280;43675;50.030;21.952;2022-09-30T07:07:45;98134.37;;;14.36;73.81
57847;BME280;43675;50.030;21.952;2022-09-30T07:10:11;98134.20;;;14.42;73.70
57847;BME280;43675;50.030;21.952;2022-09-30T07:12:43;98133.47;;;14.49;73.58
57847;BME280;43675;50.030;21.952;2022-09-30T07:15:18;98128.97;;;14.57;73.52
57847;BME280;43675;50.030;21.952;2022-09-30T07:17:53;98135.80;;;14.65;73.39
57847;BME280;43675;50.030;21.952;2022-09-30T07:20:16;98135.87;;;14.70;73.20
57847;BME280;43675;50.030;21.952;2022-09-30T07:22:42;98136.72;;;14.76;73.14
57847;BME280;43675;50.030;21.952;2022-09-30T07:25:08;98135.16;;;14.82;72.98
57847;BME280;43675;50.030;21.952;2022-09-30T07:27:33;98137.41;;;14.90;72.97
57847;BME280;43675;50.030;21.952;2022-09-30T07:30:06;98139.99;;;15.04;72.76
57847;BME280;43675;50.030;21.952;2022-09-30T07:32:32;98137.95;;;15.17;72.58
57847;BME280;43675;50.030;21.952;2022-09-30T07:34:58;98142.14;;;15.34;72.27
57847;BME280;43675;50.030;21.952;2022-09-30T07:37:24;98141.51;;;15.51;72.04
57847;BME280;43675;50.030;21.952;2022-09-30T07:39:51;98145.16;;;15.72;71.86
57847;BME280;43675;50.030;21.952;2022-09-30T07:42:17;98145.58;;;15.93;71.39
57847;BME280;43675;50.030;21.952;2022-09-30T07:44:43;98142.98;;;16.14;70.79
57847;BME280;43675;50.030;21.952;2022-09-30T07:47:10;98140.07;;;16.28;70.25
57847;BME280;43675;50.030;21.952;2022-09-30T07:49:37;98140.13;;;16.40;69.86
57847;BME280;43675;50.030;21.952;2022-09-30T07:52:03;98138.80;;;16.45;69.73
57847;BME280;43675;50.030;21.952;2022-09-30T07:54:31;98140.50;;;16.57;69.63
57847;BME280;43675;50.030;21.952;2022-09-30T07:56:58;98138.37;;;16.71;69.56
57847;BME280;43675;50.030;21.952;2022-09-30T07:59:25;98135.70;;;16.84;69.28
57847;BME280;43675;50.030;21.952;2022-09-30T08:01:52;98142.48;;;16.94;68.93
57847;BME280;43675;50.030;21.952;2022-09-30T08:04:18;98144.14;;;16.97;68.63
57847;BME280;43675;50.030;21.952;2022-09-30T08:06:54;98153.64;;;17.05;68.55
57847;BME280;43675;50.030;21.952;2022-09-30T08:09:22;98152.02;;;17.19;68.29
57847;BME280;43675;50.030;21.952;2022-09-30T08:11:49;98153.11;;;17.33;68.05
57847;BME280;43675;50.030;21.952;2022-09-30T08:14:26;98153.93;;;17.49;67.69
57847;BME280;43675;50.030;21.952;2022-09-30T08:16:52;98142.55;;;17.65;67.17
57847;BME280;43675;50.030;21.952;2022-09-30T08:19:21;98145.55;;;17.78;66.84
57847;BME280;43675;50.030;21.952;2022-09-30T08:21:48;98141.18;;;17.90;66.26
57847;BME280;43675;50.030;21.952;2022-09-30T08:24:14;98149.59;;;17.88;66.07
57847;BME280;43675;50.030;21.952;2022-09-30T08:26:41;98146.63;;;17.87;65.94
57847;BME280;43675;50.030;21.952;2022-09-30T08:29:08;98153.41;;;17.87;65.85
57847;BME280;43675;50.030;21.952;2022-09-30T08:31:40;98149.60;;;17.91;65.61
57847;BME280;43675;50.030;21.952;2022-09-30T08:34:06;98156.63;;;17.92;65.40
57847;BME280;43675;50.030;21.952;2022-09-30T08:36:32;98156.93;;;17.90;65.44
57847;BME280;43675;50.030;21.952;2022-09-30T08:38:57;98155.54;;;17.95;65.22
57847;BME280;43675;50.030;21.952;2022-09-30T08:49:43;98165.63;;;17.82;65.32
57847;BME280;43675;50.030;21.952;2022-09-30T08:52:10;98166.16;;;17.77;65.40
57847;BME280;43675;50.030;21.952;2022-09-30T08:54:35;98166.98;;;17.65;65.70
57847;BME280;43675;50.030;21.952;2022-09-30T08:57:02;98171.05;;;17.57;65.99
57847;BME280;43675;50.030;21.952;2022-09-30T08:59:37;98166.70;;;17.51;66.09
57847;BME280;43675;50.030;21.952;2022-09-30T09:02:24;98167.23;;;17.43;66.31
57847;BME280;43675;50.030;21.952;2022-09-30T09:04:51;98169.38;;;17.33;66.31
57847;BME280;43675;50.030;21.952;2022-09-30T09:07:29;98162.05;;;17.19;66.72
57847;BME280;43675;50.030;21.952;2022-09-30T09:18:54;98166.61;;;16.85;67.84
57847;BME280;43675;50.030;21.952;2022-09-30T09:21:31;98177.70;;;16.86;67.93
57847;BME280;43675;50.030;21.952;2022-09-30T09:23:59;98185.30;;;16.84;68.03
57847;BME280;43675;50.030;21.952;2022-09-30T09:26:29;98181.52;;;16.85;68.03
57847;BME280;43675;50.030;21.952;2022-09-30T09:31:47;98173.05;;;16.74;68.08
57847;BME280;43675;50.030;21.952;2022-09-30T09:34:13;98170.61;;;16.65;68.36
57847;BME280;43675;50.030;21.952;2022-09-30T09:42:30;98171.84;;;16.45;68.85
57847;BME280;43675;50.030;21.952;2022-09-30T09:45:19;98168.28;;;16.37;68.99
57847;BME280;43675;50.030;21.952;2022-09-30T09:47:42;98166.64;;;16.33;69.16
57847;BME280;43675;50.030;21.952;2022-09-30T09:50:13;98172.27;;;16.24;69.34
57847;BME280;43675;50.030;21.952;2022-09-30T09:53:01;98169.03;;;16.22;69.44
57847;BME280;43675;50.030;21.952;2022-09-30T09:55:27;98172.80;;;16.19;69.48
57847;BME280;43675;50.030;21.952;2022-09-30T09:58:12;98174.91;;;16.12;69.57
57847;BME280;43675;50.030;21.952;2022-09-30T10:00:45;98175.44;;;16.08;69.71
57847;BME280;43675;50.030;21.952;2022-09-30T10:03:17;98178.38;;;15.99;69.86
57847;BME280;43675;50.030;21.952;2022-09-30T10:05:45;98190.80;;;15.95;70.05
57847;BME280;43675;50.030;21.952;2022-09-30T10:08:19;98198.30;;;15.88;70.22
57847;BME280;43675;50.030;21.952;2022-09-30T10:10:50;98197.47;;;15.83;70.35
57847;BME280;43675;50.030;21.952;2022-09-30T10:13:24;98196.31;;;15.74;70.60
57847;BME280;43675;50.030;21.952;2022-09-30T10:15:53;98193.55;;;15.66;70.83
57847;BME280;43675;50.030;21.952;2022-09-30T10:18:24;98191.31;;;15.58;70.98
57847;BME280;43675;50.030;21.952;2022-09-30T10:20:54;98199.12;;;15.52;71.13
57847;BME280;43675;50.030;21.952;2022-09-30T10:23:26;98203.64;;;15.49;71.36
57847;BME280;43675;50.030;21.952;2022-09-30T10:28:28;98194.69;;;15.46;71.57
57847;BME280;43675;50.030;21.952;2022-09-30T10:31:03;98199.56;;;15.44;71.74
57847;BME280;43675;50.030;21.952;2022-09-30T10:33:45;98201.17;;;15.45;71.84
57847;BME280;43675;50.030;21.952;2022-09-30T10:36:15;98205.50;;;15.43;71.87
57847;BME280;43675;50.030;21.952;2022-09-30T10:38:56;98191.11;;;15.38;72.07
57847;BME280;43675;50.030;21.952;2022-09-30T10:41:25;98191.64;;;15.37;72.10
57847;BME280;43675;50.030;21.952;2022-09-30T10:43:53;98185.69;;;15.35;72.21
57847;BME280;43675;50.030;21.952;2022-09-30T10:46:28;98190.03;;;15.36;72.31
57847;BME280;43675;50.030;21.952;2022-09-30T10:48:56;98188.11;;;15.37;72.42
57847;BME280;43675;50.030;21.952;2022-09-30T10:51:31;98177.86;;;15.36;72.51
57847;BME280;43675;50.030;21.952;2022-09-30T10:53:57;98174.34;;;15.38;72.47
57847;BME280;43675;50.030;21.952;2022-09-30T10:56:42;98175.45;;;15.40;72.58
57847;BME280;43675;50.030;21.952;2022-09-30T10:59:29;98170.59;;;15.42;72.57
57847;BME280;43675;50.030;21.952;2022-09-30T11:01:47;98164.87;;;15.36;72.50
57847;BME280;43675;50.030;21.952;2022-09-30T11:04:39;98159.25;;;15.45;72.52
57847;BME280;43675;50.030;21.952;2022-09-30T11:07:30;98164.22;;;15.53;72.66
57847;BME280;43675;50.030;21.952;2022-09-30T11:10:20;98158.09;;;15.63;72.64
57847;BME280;43675;50.030;21.952;2022-09-30T11:12:48;98159.25;;;15.72;72.41
57847;BME280;43675;50.030;21.952;2022-09-30T11:15:23;98159.50;;;15.73;72.18
57847;BME280;43675;50.030;21.952;2022-09-30T11:17:59;98158.19;;;15.75;72.24
57847;BME280;43675;50.030;21.952;2022-09-30T11:20:28;98150.13;;;15.83;72.32
57847;BME280;43675;50.030;21.952;2022-09-30T11:23:10;98156.16;;;15.97;72.28
57847;BME280;43675;50.030;21.952;2022-09-30T11:25:39;98153.81;;;16.14;71.99
57847;BME280;43675;50.030;21.952;2022-09-30T11:36:34;98151.03;;;16.03;71.70
57847;BME280;43675;50.030;21.952;2022-09-30T11:41:48;98136.88;;;15.89;72.04
57847;BME280;43675;50.030;21.952;2022-09-30T11:49:50;98140.65;;;15.83;72.26
57847;BME280;43675;50.030;21.952;2022-09-30T11:55:32;98144.22;;;15.93;72.24
57847;BME280;43675;50.030;21.952;2022-09-30T11:58:04;98146.72;;;16.02;72.14
57847;BME280;43675;50.030;21.952;2022-09-30T12:00:33;98145.12;;;16.12;71.99
57847;BME280;43675;50.030;21.952;2022-09-30T12:03:06;98146.27;;;16.21;71.74
57847;BME280;43675;50.030;21.952;2022-09-30T12:05:38;98144.13;;;16.28;71.59
57847;BME280;43675;50.030;21.952;2022-09-30T12:08:32;98139.84;;;16.34;71.54
57847;BME280;43675;50.030;21.952;2022-09-30T12:11:06;98138.77;;;16.43;71.41
57847;BME280;43675;50.030;21.952;2022-09-30T12:13:54;98139.91;;;16.49;71.31
57847;BME280;43675;50.030;21.952;2022-09-30T12:16:23;98143.17;;;16.54;71.16
57847;BME280;43675;50.030;21.952;2022-09-30T12:19:16;98141.54;;;16.53;71.17
57847;BME280;43675;50.030;21.952;2022-09-30T12:22:43;98142.61;;;16.52;71.09
57847;BME280;43675;50.030;21.952;2022-09-30T12:24:35;98137.73;;;16.46;71.14
57847;BME280;43675;50.030;21.952;2022-09-30T12:27:03;98144.76;;;16.45;71.18
57847;BME280;43675;50.030;21.952;2022-09-30T12:29:55;98143.13;;;16.41;71.28
57847;BME280;43675;50.030;21.952;2022-09-30T12:35:55;98128.52;;;16.42;71.39
57847;BME280;43675;50.030;21.952;2022-09-30T12:41:49;98135.22;;;16.35;71.39
57847;BME280;43675;50.030;21.952;2022-09-30T12:47:13;98131.38;;;16.21;71.60
57847;BME280;43675;50.030;21.952;2022-09-30T12:49:38;98129.20;;;16.15;71.69
57847;BME280;43675;50.030;21.952;2022-09-30T12:52:11;98133.23;;;16.13;71.78
57847;BME280;43675;50.030;21.952;2022-09-30T12:54:40;98131.88;;;16.13;71.79
57847;BME280;43675;50.030;21.952;2022-09-30T12:57:07;98133.52;;;16.14;71.87
57847;BME280;43675;50.030;21.952;2022-09-30T12:59:36;98134.33;;;16.14;71.93
57847;BME280;43675;50.030;21.952;2022-09-30T13:02:04;98138.68;;;16.18;71.95
57847;BME280;43675;50.030;21.952;2022-09-30T13:12:16;98147.66;;;16.28;72.08
57847;BME280;43675;50.030;21.952;2022-09-30T13:14:43;98150.65;;;16.29;72.10
57847;BME280;43675;50.030;21.952;2022-09-30T13:27:47;98152.34;;;16.48;71.96
57847;BME280;43675;50.030;21.952;2022-09-30T13:35:48;98147.75;;;16.46;72.06
57847;BME280;43675;50.030;21.952;2022-09-30T13:38:37;98151.53;;;16.45;72.10
57847;BME280;43675;50.030;21.952;2022-09-30T13:41:19;98150.68;;;16.39;72.22
57847;BME280;43675;50.030;21.952;2022-09-30T13:44:09;98147.72;;;16.38;72.29
57847;BME280;43675;50.030;21.952;2022-09-30T13:46:50;98147.97;;;16.37;72.36
57847;BME280;43675;50.030;21.952;2022-09-30T13:49:22;98145.52;;;16.35;72.40
57847;BME280;43675;50.030;21.952;2022-09-30T13:51:48;98150.39;;;16.36;72.41
57847;BME280;43675;50.030;21.952;2022-09-30T13:54:32;98136.32;;;16.39;72.37
57847;BME280;43675;50.030;21.952;2022-09-30T13:56:49;98139.06;;;16.41;72.38
57847;BME280;43675;50.030;21.952;2022-09-30T13:59:41;98139.59;;;16.41;72.44
57847;BME280;43675;50.030;21.952;2022-09-30T14:02:44;98144.19;;;16.43;72.53
57847;BME280;43675;50.030;21.952;2022-09-30T14:13:09;98152.31;;;16.43;72.78
57847;BME280;43675;50.030;21.952;2022-09-30T14:16:12;98150.70;;;16.44;72.83
57847;BME280;43675;50.030;21.952;2022-09-30T14:18:48;98153.70;;;16.45;72.87
57847;BME280;43675;50.030;21.952;2022-09-30T14:24:09;98149.92;;;16.46;72.95
57847;BME280;43675;50.030;21.952;2022-09-30T14:26:50;98157.51;;;16.52;72.93
57847;BME280;43675;50.030;21.952;2022-09-30T14:32:12;98156.44;;;16.53;72.75
57847;BME280;43675;50.030;21.952;2022-09-30T14:34:39;98155.08;;;16.53;72.82
57847;BME280;43675;50.030;21.952;2022-09-30T14:37:29;98159.14;;;16.55;72.90
57847;BME280;43675;50.030;21.952;2022-09-30T14:39:51;98159.48;;;16.62;72.92
57847;BME280;43675;50.030;21.952;2022-09-30T14:42:22;98162.48;;;16.65;72.91
57847;BME280;43675;50.030;21.952;2022-09-30T14:44:47;98160.58;;;16.68;72.88
57847;BME280;43675;50.030;21.952;2022-09-30T14:47:14;98157.34;;;16.71;72.87
57847;BME280;43675;50.030;21.952;2022-09-30T14:49:41;98165.21;;;16.73;72.87
57847;BME280;43675;50.030;21.952;2022-09-30T14:54:53;98170.34;;;16.74;72.84
57847;BME280;43675;50.030;21.952;2022-09-30T14:57:19;98173.59;;;16.71;72.93
57847;BME280;43675;50.030;21.952;2022-09-30T14:59:44;98174.97;;;16.74;72.93
57847;BME280;43675;50.030;21.952;2022-09-30T15:02:16;98179.32;;;16.77;72.89
57847;BME280;43675;50.030;21.952;2022-09-30T15:04:46;98176.08;;;16.78;72.86
57847;BME280;43675;50.030;21.952;2022-09-30T15:07:11;98181.47;;;16.75;72.83
57847;BME280;43675;50.030;21.952;2022-09-30T15:09:39;98177.66;;;16.71;72.90
57847;BME280;43675;50.030;21.952;2022-09-30T15:12:10;98176.02;;;16.68;72.97
57847;BME280;43675;50.030;21.952;2022-09-30T15:17:20;98176.28;;;16.64;73.10
57847;BME280;43675;50.030;21.952;2022-09-30T15:19:46;98177.91;;;16.62;73.27
57847;BME280;43675;50.030;21.952;2022-09-30T15:22:13;98186.58;;;16.64;73.34
57847;BME280;43675;50.030;21.952;2022-09-30T15:24:39;98185.76;;;16.66;73.44
57847;BME280;43675;50.030;21.952;2022-09-30T15:27:05;98187.14;;;16.69;73.44